Time;durP1;ratioP1;P1;durP2;ratioP2;P2;SDS_P1;SDS_P2;PMS_P1;PMS_P2;Temp;Humidity;BMP_temperature;BMP_pressure;BME280_temperature;BME280_humidity;BME280_pressure;Samples;Min_cycle;Max_cycle;Signal;HPM_P1;HPM_P2
2023/01/19 00:00:53;;;;;;;34.63;22.93;;;;;;;;;;5054433;28;20208;-47
2023/01/19 00:03:27;;;;;;;38.07;22.73;;;;;;;;;;5054443;28;20214;-46
2023/01/19 00:05:54;;;;;;;34.57;20.97;;;;;;;;;;5054441;28;20537;-46
2023/01/19 00:08:21;;;;;;;32.10;20.97;;;;;;;;;;5054612;28;20265;-46
2023/01/19 00:10:52;;;;;;;34.20;20.83;;;;;;;;;;5054815;28;20274;-46
2023/01/19 00:13:19;;;;;;;32.83;20.80;;;;;;;;;;5054357;28;20300;-46
2023/01/19 00:15:46;;;;;;;32.07;19.77;;;;;;;;;;5054308;28;20266;-47
2023/01/19 00:18:14;;;;;;;31.47;20.07;;;;;;;;;;5057296;28;20223;-47
2023/01/19 00:20:41;;;;;;;30.30;18.37;;;;;;;;;;5058448;28;20204;-47
2023/01/19 00:23:08;;;;;;;31.00;19.23;;;;;;;;;;5058261;28;20232;-46
2023/01/19 00:25:41;;;;;;;41.67;25.77;;;;;;;;;;5058207;28;20212;-49
2023/01/19 00:28:13;;;;;;;49.57;25.20;;;;;;;;;;5058630;28;20204;-46
2023/01/19 00:30:41;;;;;;;27.43;16.23;;;;;;;;;;5057913;28;20218;-47
2023/01/19 00:33:09;;;;;;;30.43;15.97;;;;;;;;;;5076265;28;20206;-47
2023/01/19 00:35:36;;;;;;;26.57;15.60;;;;;;;;;;5078003;28;20301;-47
2023/01/19 00:38:03;;;;;;;29.83;16.63;;;;;;;;;;5077814;28;20199;-47
2023/01/19 00:40:31;;;;;;;32.60;17.40;;;;;;;;;;5078305;28;20218;-46
2023/01/19 00:42:59;;;;;;;27.90;16.10;;;;;;;;;;5077902;28;20215;-47
2023/01/19 00:45:27;;;;;;;28.87;15.90;;;;;;;;;;5077685;28;20203;-46
2023/01/19 00:47:56;;;;;;;24.27;13.80;;;;;;;;;;5077837;28;20260;-46
2023/01/19 00:50:25;;;;;;;24.47;14.27;;;;;;;;;;5077908;28;20207;-49
2023/01/19 00:52:54;;;;;;;20.73;12.73;;;;;;;;;;5076966;28;20628;-46
2023/01/19 00:55:22;;;;;;;19.27;11.57;;;;;;;;;;5076939;28;20200;-46
2023/01/19 00:57:49;;;;;;;19.63;11.43;;;;;;;;;;5076043;28;20207;-45
2023/01/19 01:00:20;;;;;;;14.83;9.13;;;;;;;;;;5076799;28;20265;-46
2023/01/19 01:02:49;;;;;;;13.77;8.63;;;;;;;;;;5076757;28;20268;-45
2023/01/19 01:05:17;;;;;;;15.67;8.43;;;;;;;;;;5077377;28;20214;-46
2023/01/19 01:07:45;;;;;;;13.40;8.27;;;;;;;;;;5076942;28;20704;-46
2023/01/19 01:10:22;;;;;;;14.07;9.50;;;;;;;;;;5077151;28;20648;-46
2023/01/19 01:12:49;;;;;;;13.27;8.03;;;;;;;;;;5077171;28;20210;-46
2023/01/19 01:15:36;;;;;;;17.87;8.70;;;;;;;;;;5077512;28;20222;-46
2023/01/19 01:18:03;;;;;;;18.87;9.47;;;;;;;;;;5076294;28;20217;-45
2023/01/19 01:20:33;;;;;;;17.43;9.70;;;;;;;;;;5077379;28;20203;-46
2023/01/19 01:23:00;;;;;;;13.77;8.57;;;;;;;;;;5076909;28;20235;-45
2023/01/19 01:25:29;;;;;;;13.47;7.97;;;;;;;;;;5077959;28;20203;-45
2023/01/19 01:27:56;;;;;;;14.10;8.17;;;;;;;;;;5077252;28;20560;-45
2023/01/19 01:30:24;;;;;;;17.27;9.47;;;;;;;;;;5076567;28;20207;-46
2023/01/19 01:32:51;;;;;;;14.67;8.83;;;;;;;;;;5076864;28;20204;-45
2023/01/19 01:35:18;;;;;;;14.10;9.13;;;;;;;;;;5076888;28;20534;-45
2023/01/19 01:37:45;;;;;;;14.07;8.50;;;;;;;;;;5077647;28;20219;-46
2023/01/19 01:40:15;;;;;;;14.53;9.30;;;;;;;;;;5076750;28;20203;-46
2023/01/19 01:42:42;;;;;;;16.70;9.77;;;;;;;;;;5076863;28;20286;-46
2023/01/19 01:45:27;;;;;;;20.37;11.37;;;;;;;;;;5076914;28;20203;-45
2023/01/19 01:47:59;;;;;;;15.67;9.17;;;;;;;;;;5076861;28;20199;-45
2023/01/19 01:50:28;;;;;;;14.90;8.77;;;;;;;;;;5076015;28;20526;-46
2023/01/19 01:53:05;;;;;;;13.77;8.27;;;;;;;;;;5075870;28;20199;-45
2023/01/19 01:55:39;;;;;;;15.07;8.73;;;;;;;;;;5069155;28;20207;-45
2023/01/19 01:58:08;;;;;;;13.57;8.43;;;;;;;;;;5072195;28;20195;-46
2023/01/19 02:03:23;;;;;;;18.77;9.80;;;;;;;;;;5076359;28;20199;-45
2023/01/19 02:05:51;;;;;;;24.10;11.27;;;;;;;;;;5076450;28;20207;-45
2023/01/19 02:13:57;;;;;;;19.07;12.87;;;;;;;;;;5076567;28;20199;-46
2023/01/19 02:16:25;;;;;;;24.20;14.20;;;;;;;;;;5076277;28;20276;-45
2023/01/19 02:18:52;;;;;;;27.33;15.10;;;;;;;;;;5075435;28;20219;-46
2023/01/19 02:21:28;;;;;;;37.53;15.73;;;;;;;;;;5075885;28;20203;-45
2023/01/19 02:23:56;;;;;;;28.50;12.90;;;;;;;;;;5074951;28;20223;-46
2023/01/19 02:26:30;;;;;;;16.60;9.90;;;;;;;;;;5074769;28;20276;-46
2023/01/19 02:29:02;;;;;;;14.80;8.80;;;;;;;;;;5075796;28;20676;-46
2023/01/19 02:31:31;;;;;;;14.03;8.30;;;;;;;;;;5076018;28;20200;-46
2023/01/19 02:33:59;;;;;;;16.10;9.07;;;;;;;;;;5075168;28;20210;-45
2023/01/19 02:36:35;;;;;;;17.20;9.57;;;;;;;;;;5074932;28;20233;-45
2023/01/19 02:39:03;;;;;;;15.50;9.50;;;;;;;;;;5075049;28;20248;-46
2023/01/19 02:41:35;;;;;;;28.53;12.03;;;;;;;;;;5056328;28;20206;-47
2023/01/19 02:44:03;;;;;;;25.93;11.10;;;;;;;;;;5074849;28;20199;-46
2023/01/19 02:46:30;;;;;;;35.13;17.37;;;;;;;;;;5074442;28;20652;-46
2023/01/19 02:48:58;;;;;;;43.00;17.40;;;;;;;;;;5075306;28;20705;-45
2023/01/19 02:51:27;;;;;;;127.87;34.87;;;;;;;;;;5075496;28;20203;-46
2023/01/19 02:54:03;;;;;;;64.87;21.87;;;;;;;;;;5075262;28;20264;-46
2023/01/19 02:56:46;;;;;;;83.23;27.10;;;;;;;;;;5075268;28;20222;-45
2023/01/19 02:59:43;;;;;;;55.53;19.70;;;;;;;;;;5076114;28;20227;-47
2023/01/19 03:02:26;;;;;;;54.87;20.63;;;;;;;;;;5074474;28;20616;-45
2023/01/19 03:05:05;;;;;;;40.47;15.37;;;;;;;;;;5074566;28;20225;-45
2023/01/19 03:07:41;;;;;;;33.10;11.83;;;;;;;;;;5074774;28;20535;-45
2023/01/19 03:10:16;;;;;;;65.63;27.73;;;;;;;;;;5075513;28;20198;-46
2023/01/19 03:13:22;;;;;;;31.43;15.67;;;;;;;;;;5074572;28;20234;-46
2023/01/19 03:15:54;;;;;;;190.83;62.13;;;;;;;;;;5074470;28;20629;-46
2023/01/19 03:18:25;;;;;;;185.87;49.23;;;;;;;;;;5074084;28;20207;-46
2023/01/19 03:20:54;;;;;;;27.17;12.53;;;;;;;;;;5074497;28;20211;-46
2023/01/19 03:23:25;;;;;;;14.70;8.20;;;;;;;;;;5073614;28;20243;-45
2023/01/19 03:25:54;;;;;;;13.90;8.70;;;;;;;;;;5074155;28;20210;-45
2023/01/19 03:28:24;;;;;;;12.10;7.43;;;;;;;;;;5074206;28;20203;-46
2023/01/19 03:31:00;;;;;;;17.53;9.73;;;;;;;;;;5074548;28;20574;-46
2023/01/19 03:33:36;;;;;;;15.80;9.37;;;;;;;;;;5074833;28;20187;-45
2023/01/19 03:36:07;;;;;;;17.40;9.60;;;;;;;;;;5074386;28;20198;-45
2023/01/19 03:38:36;;;;;;;23.97;10.57;;;;;;;;;;5072971;28;20203;-45
2023/01/19 03:41:07;;;;;;;48.73;16.43;;;;;;;;;;5073371;28;20215;-47
2023/01/19 03:43:35;;;;;;;39.27;16.93;;;;;;;;;;5074142;28;20273;-46
2023/01/19 03:46:04;;;;;;;29.43;14.80;;;;;;;;;;5073035;28;20566;-46
2023/01/19 03:48:31;;;;;;;52.17;17.90;;;;;;;;;;5073203;28;20311;-45
2023/01/19 03:51:03;;;;;;;82.50;23.40;;;;;;;;;;5073227;28;20269;-47
2023/01/19 03:53:30;;;;;;;55.27;18.33;;;;;;;;;;5076429;28;20260;-45
2023/01/19 03:55:57;;;;;;;45.47;16.03;;;;;;;;;;5078747;28;20207;-46
2023/01/19 03:58:24;;;;;;;53.43;20.07;;;;;;;;;;5078351;28;20615;-45
2023/01/19 04:00:51;;;;;;;54.73;19.47;;;;;;;;;;5078443;28;20211;-46
2023/01/19 04:03:19;;;;;;;124.47;43.70;;;;;;;;;;5078632;28;20207;-45
2023/01/19 04:05:46;;;;;;;83.37;37.37;;;;;;;;;;5078396;28;20294;-46
2023/01/19 04:08:13;;;;;;;39.00;17.30;;;;;;;;;;5078433;28;20203;-45
2023/01/19 04:10:40;;;;;;;27.23;13.73;;;;;;;;;;5078620;28;20297;-47
2023/01/19 04:13:07;;;;;;;27.63;15.13;;;;;;;;;;5078430;28;20203;-46
2023/01/19 04:15:34;;;;;;;33.53;20.90;;;;;;;;;;5078537;28;20203;-47
2023/01/19 04:18:02;;;;;;;88.80;37.40;;;;;;;;;;5078090;28;20231;-45
2023/01/19 04:20:29;;;;;;;134.20;36.23;;;;;;;;;;5078182;28;20211;-46
2023/01/19 04:23:00;;;;;;;99.13;30.23;;;;;;;;;;5078321;28;20297;-46
2023/01/19 04:25:28;;;;;;;66.97;22.43;;;;;;;;;;5078417;28;20199;-46
2023/01/19 04:27:58;;;;;;;48.13;19.57;;;;;;;;;;5071775;28;20211;-45
2023/01/19 04:30:26;;;;;;;51.53;18.07;;;;;;;;;;5059553;28;20250;-46
2023/01/19 04:32:56;;;;;;;47.43;18.83;;;;;;;;;;5066832;28;20214;-46
2023/01/19 04:35:24;;;;;;;30.03;13.63;;;;;;;;;;5068463;28;20692;-46
2023/01/19 04:37:52;;;;;;;46.63;19.63;;;;;;;;;;5062485;28;20227;-53
2023/01/19 04:40:19;;;;;;;78.27;22.47;;;;;;;;;;5068363;28;20207;-46
2023/01/19 04:42:46;;;;;;;48.57;17.10;;;;;;;;;;5071624;28;20208;-46
2023/01/19 04:45:13;;;;;;;51.07;23.40;;;;;;;;;;5067695;28;20211;-47
2023/01/19 04:47:41;;;;;;;33.60;16.80;;;;;;;;;;5062635;28;20577;-47
2023/01/19 04:50:09;;;;;;;20.37;11.50;;;;;;;;;;5061828;28;20220;-47
2023/01/19 04:52:37;;;;;;;18.80;10.97;;;;;;;;;;5067282;28;20211;-46
2023/01/19 04:55:05;;;;;;;24.97;12.73;;;;;;;;;;5059816;28;20208;-46
2023/01/19 04:57:32;;;;;;;26.40;12.50;;;;;;;;;;5057685;28;20224;-53
2023/01/19 05:00:00;;;;;;;85.33;30.67;;;;;;;;;;5067855;28;20192;-48
2023/01/19 05:02:27;;;;;;;71.20;24.53;;;;;;;;;;5064592;28;20325;-49
2023/01/19 05:04:54;;;;;;;57.90;21.40;;;;;;;;;;5068336;28;20223;-46
2023/01/19 05:07:21;;;;;;;53.57;23.07;;;;;;;;;;5076773;28;20223;-46
2023/01/19 05:09:48;;;;;;;29.63;14.67;;;;;;;;;;5076164;28;20296;-47
2023/01/19 05:12:16;;;;;;;19.60;11.40;;;;;;;;;;5076462;28;20235;-46
2023/01/19 05:14:43;;;;;;;20.13;11.40;;;;;;;;;;5069165;28;20579;-46
2023/01/19 05:17:11;;;;;;;17.77;10.80;;;;;;;;;;5071068;28;20590;-46
2023/01/19 05:19:38;;;;;;;17.40;10.47;;;;;;;;;;5076310;28;20223;-46
2023/01/19 05:22:05;;;;;;;41.40;18.80;;;;;;;;;;5069908;28;20285;-46
2023/01/19 05:24:32;;;;;;;118.43;33.23;;;;;;;;;;5064529;28;20246;-46
2023/01/19 05:27:00;;;;;;;107.03;31.00;;;;;;;;;;5056630;28;20243;-46
2023/01/19 05:29:27;;;;;;;126.00;37.03;;;;;;;;;;5056653;28;20219;-47
2023/01/19 05:31:54;;;;;;;57.17;21.73;;;;;;;;;;5055808;28;20224;-46
2023/01/19 05:34:21;;;;;;;39.60;16.30;;;;;;;;;;5056747;28;20601;-46
2023/01/19 05:36:49;;;;;;;28.60;13.77;;;;;;;;;;5056104;28;20235;-46
2023/01/19 05:39:16;;;;;;;19.80;11.47;;;;;;;;;;5058885;28;20284;-46
2023/01/19 05:41:44;;;;;;;35.17;15.30;;;;;;;;;;5072595;28;20223;-47
2023/01/19 05:44:11;;;;;;;37.33;17.37;;;;;;;;;;5076183;28;20219;-48
2023/01/19 05:46:39;;;;;;;21.80;12.60;;;;;;;;;;5074973;28;20551;-46
2023/01/19 05:49:07;;;;;;;19.80;11.73;;;;;;;;;;5074556;28;20308;-50
2023/01/19 05:51:36;;;;;;;19.70;11.43;;;;;;;;;;5074005;28;20656;-50
2023/01/19 05:54:05;;;;;;;20.80;11.70;;;;;;;;;;5074588;28;20195;-49
2023/01/19 05:56:33;;;;;;;19.10;10.60;;;;;;;;;;5074547;28;20620;-49
2023/01/19 05:59:00;;;;;;;17.83;10.37;;;;;;;;;;5074436;28;20211;-47
2023/01/19 06:01:28;;;;;;;17.83;10.43;;;;;;;;;;5075825;28;20207;-48
2023/01/19 06:03:55;;;;;;;24.30;13.23;;;;;;;;;;5075935;28;20660;-47
2023/01/19 06:06:22;;;;;;;29.13;16.00;;;;;;;;;;5075750;28;20203;-48
2023/01/19 06:08:49;;;;;;;24.47;13.70;;;;;;;;;;5075957;28;20235;-46
2023/01/19 06:11:17;;;;;;;27.20;15.97;;;;;;;;;;5076032;28;20264;-48
2023/01/19 06:13:44;;;;;;;25.17;14.97;;;;;;;;;;5075739;28;20512;-52
2023/01/19 06:16:11;;;;;;;24.77;13.87;;;;;;;;;;5073896;28;20211;-46
2023/01/19 06:18:38;;;;;;;23.93;14.13;;;;;;;;;;5075383;28;20242;-48
2023/01/19 06:21:07;;;;;;;26.70;16.00;;;;;;;;;;5075715;28;20207;-47
2023/01/19 06:23:34;;;;;;;28.53;16.03;;;;;;;;;;5075552;28;20231;-46
2023/01/19 06:26:02;;;;;;;45.20;21.93;;;;;;;;;;5075743;28;20499;-47
2023/01/19 06:28:29;;;;;;;26.23;14.70;;;;;;;;;;5075848;28;20199;-46
2023/01/19 06:30:57;;;;;;;23.83;13.63;;;;;;;;;;5075239;28;20203;-48
2023/01/19 06:33:24;;;;;;;20.00;12.70;;;;;;;;;;5075637;28;20203;-49
2023/01/19 06:35:52;;;;;;;26.57;16.27;;;;;;;;;;5075570;28;20200;-48
2023/01/19 06:38:19;;;;;;;31.47;17.97;;;;;;;;;;5075209;28;20227;-47
2023/01/19 06:40:54;;;;;;;46.17;24.73;;;;;;;;;;5075108;28;20195;-46
2023/01/19 06:43:21;;;;;;;95.50;37.20;;;;;;;;;;5075525;28;20245;-50
2023/01/19 06:45:49;;;;;;;35.17;18.37;;;;;;;;;;5075270;28;20200;-48
2023/01/19 06:48:17;;;;;;;20.97;12.87;;;;;;;;;;5075058;28;20207;-49
2023/01/19 06:50:45;;;;;;;21.77;12.90;;;;;;;;;;5075249;28;20199;-48
2023/01/19 06:53:13;;;;;;;22.57;13.33;;;;;;;;;;5075332;28;20199;-48
2023/01/19 06:55:40;;;;;;;21.23;13.37;;;;;;;;;;5072821;28;20308;-50
2023/01/19 06:58:07;;;;;;;26.23;14.40;;;;;;;;;;5073941;28;20261;-52
2023/01/19 07:00:34;;;;;;;32.00;16.70;;;;;;;;;;5074515;28;20200;-48
2023/01/19 07:03:01;;;;;;;26.03;15.30;;;;;;;;;;5074212;28;20218;-48
2023/01/19 07:05:29;;;;;;;29.03;16.07;;;;;;;;;;5074156;28;20621;-50
2023/01/19 07:07:56;;;;;;;25.00;14.93;;;;;;;;;;5074464;28;20219;-50
2023/01/19 07:10:24;;;;;;;24.10;13.87;;;;;;;;;;5074163;28;20200;-49
2023/01/19 07:12:51;;;;;;;24.97;15.23;;;;;;;;;;5074760;28;20211;-53
2023/01/19 07:15:21;;;;;;;24.67;14.57;;;;;;;;;;5074448;28;20211;-54
2023/01/19 07:17:48;;;;;;;28.00;14.93;;;;;;;;;;5074884;28;20216;-55
2023/01/19 07:20:18;;;;;;;25.13;15.23;;;;;;;;;;5070281;28;20526;-53
2023/01/19 07:22:45;;;;;;;27.53;14.97;;;;;;;;;;5074891;28;20237;-48
2023/01/19 07:25:13;;;;;;;26.37;15.27;;;;;;;;;;5074866;28;20285;-49
2023/01/19 07:27:40;;;;;;;27.90;15.33;;;;;;;;;;5074044;28;20203;-51
2023/01/19 07:30:08;;;;;;;26.17;15.83;;;;;;;;;;5074557;28;20539;-47
2023/01/19 07:32:35;;;;;;;26.83;15.97;;;;;;;;;;5074467;28;20195;-48
2023/01/19 07:35:03;;;;;;;30.00;16.43;;;;;;;;;;5074136;28;20203;-49
2023/01/19 07:37:30;;;;;;;28.67;16.73;;;;;;;;;;5074406;28;20246;-48
2023/01/19 07:39:57;;;;;;;31.00;18.60;;;;;;;;;;5074714;28;20203;-49
2023/01/19 07:42:24;;;;;;;31.43;18.33;;;;;;;;;;5074703;28;20199;-48
2023/01/19 07:44:52;;;;;;;28.73;18.00;;;;;;;;;;5074712;28;20203;-48
2023/01/19 07:47:19;;;;;;;29.83;17.67;;;;;;;;;;5074416;28;20287;-49
2023/01/19 07:49:46;;;;;;;29.23;17.50;;;;;;;;;;5074383;28;20573;-47
2023/01/19 07:52:13;;;;;;;28.20;17.07;;;;;;;;;;5073847;28;20540;-48
2023/01/19 07:54:40;;;;;;;29.13;17.37;;;;;;;;;;5074115;28;20509;-50
2023/01/19 07:57:08;;;;;;;30.63;17.63;;;;;;;;;;5074159;28;20199;-49
2023/01/19 07:59:35;;;;;;;33.43;19.83;;;;;;;;;;5074368;28;20211;-49
2023/01/19 08:02:02;;;;;;;50.10;23.60;;;;;;;;;;5074528;28;20199;-48
2023/01/19 08:04:29;;;;;;;65.73;30.80;;;;;;;;;;5074200;28;20210;-47
2023/01/19 08:06:56;;;;;;;52.57;23.80;;;;;;;;;;5074128;28;20636;-48
2023/01/19 08:09:24;;;;;;;54.47;23.30;;;;;;;;;;5074477;28;20555;-49
2023/01/19 08:11:51;;;;;;;46.70;21.67;;;;;;;;;;5074436;28;20210;-48
2023/01/19 08:14:18;;;;;;;39.07;20.13;;;;;;;;;;5074288;28;20208;-49
2023/01/19 08:16:45;;;;;;;31.77;18.60;;;;;;;;;;5073953;28;20290;-49
2023/01/19 08:19:12;;;;;;;29.87;18.50;;;;;;;;;;5074295;28;20238;-49
2023/01/19 08:21:39;;;;;;;27.07;17.03;;;;;;;;;;5074237;28;20206;-49
2023/01/19 08:24:17;;;;;;;28.70;17.40;;;;;;;;;;5074312;28;20611;-49
2023/01/19 08:26:44;;;;;;;28.97;17.37;;;;;;;;;;5074430;28;20210;-47
2023/01/19 08:29:11;;;;;;;34.47;18.50;;;;;;;;;;5074015;28;20214;-48
2023/01/19 08:31:38;;;;;;;29.00;17.50;;;;;;;;;;5074163;28;20204;-49
2023/01/19 08:34:07;;;;;;;30.90;18.27;;;;;;;;;;5073787;28;20203;-48
2023/01/19 08:36:34;;;;;;;34.90;18.53;;;;;;;;;;5074042;28;20204;-50
2023/01/19 08:39:01;;;;;;;35.43;19.00;;;;;;;;;;5075874;28;20671;-48
2023/01/19 08:41:28;;;;;;;43.23;22.57;;;;;;;;;;5077391;28;20199;-49
2023/01/19 08:43:56;;;;;;;42.97;23.63;;;;;;;;;;5078014;28;20623;-48
2023/01/19 08:46:23;;;;;;;64.53;33.77;;;;;;;;;;5077769;28;20195;-49
2023/01/19 08:48:50;;;;;;;38.03;20.87;;;;;;;;;;5077781;28;20211;-49
2023/01/19 08:51:18;;;;;;;27.83;16.63;;;;;;;;;;5077363;28;20191;-49
2023/01/19 08:53:45;;;;;;;33.37;19.27;;;;;;;;;;5077514;28;20324;-49
2023/01/19 08:56:13;;;;;;;44.70;23.00;;;;;;;;;;5077290;28;20202;-48
2023/01/19 08:58:42;;;;;;;46.90;22.97;;;;;;;;;;5077185;28;20230;-50
2023/01/19 09:01:13;;;;;;;65.87;28.50;;;;;;;;;;5077136;28;20203;-48
2023/01/19 09:03:42;;;;;;;43.83;19.90;;;;;;;;;;5077303;28;20628;-48
2023/01/19 09:06:10;;;;;;;37.27;20.07;;;;;;;;;;5077074;28;20200;-49
2023/01/19 09:08:38;;;;;;;26.53;16.37;;;;;;;;;;5076622;28;20215;-49
2023/01/19 09:11:10;;;;;;;27.37;16.87;;;;;;;;;;5077157;28;20199;-49
2023/01/19 09:13:38;;;;;;;25.83;15.97;;;;;;;;;;5077450;28;20215;-50
2023/01/19 09:16:06;;;;;;;24.83;15.30;;;;;;;;;;5076857;28;20218;-48
2023/01/19 09:18:34;;;;;;;23.27;15.20;;;;;;;;;;5075523;28;20231;-49
2023/01/19 09:21:02;;;;;;;32.80;17.63;;;;;;;;;;5076620;28;20211;-49
2023/01/19 09:23:30;;;;;;;60.30;25.60;;;;;;;;;;5077302;28;20246;-49
2023/01/19 09:25:59;;;;;;;53.57;22.70;;;;;;;;;;5076151;28;20535;-48
2023/01/19 09:28:28;;;;;;;38.37;17.57;;;;;;;;;;5056920;28;20289;-50
2023/01/19 09:30:55;;;;;;;33.17;16.23;;;;;;;;;;5056993;28;20204;-50
2023/01/19 09:33:23;;;;;;;36.83;21.10;;;;;;;;;;5076581;28;20261;-51
2023/01/19 09:35:51;;;;;;;29.30;16.17;;;;;;;;;;5076951;28;20200;-49
2023/01/19 09:38:18;;;;;;;24.17;14.97;;;;;;;;;;5075820;28;20227;-50
2023/01/19 09:40:51;;;;;;;33.70;16.77;;;;;;;;;;5076572;28;20515;-51
2023/01/19 09:43:40;;;;;;;44.03;21.87;;;;;;;;;;5075725;28;20224;-51
2023/01/19 09:46:13;;;;;;;42.07;20.67;;;;;;;;;;5075979;28;20188;-49
2023/01/19 09:48:57;;;;;;;31.30;15.87;;;;;;;;;;5076843;28;20188;-51
2023/01/19 09:51:32;;;;;;;33.60;16.70;;;;;;;;;;5075980;28;20202;-49
2023/01/19 09:54:24;;;;;;;36.97;20.03;;;;;;;;;;5076797;28;20195;-50
2023/01/19 09:56:52;;;;;;;47.47;24.63;;;;;;;;;;5077034;28;20210;-50
2023/01/19 09:59:23;;;;;;;39.53;19.27;;;;;;;;;;5074621;28;20238;-49
2023/01/19 10:02:05;;;;;;;28.03;16.13;;;;;;;;;;5076193;28;20234;-48
2023/01/19 10:04:34;;;;;;;33.23;17.13;;;;;;;;;;5076841;28;20191;-48
2023/01/19 10:07:10;;;;;;;28.83;16.97;;;;;;;;;;5076238;28;20195;-50
2023/01/19 10:09:41;;;;;;;28.13;16.97;;;;;;;;;;5076002;28;20195;-50
2023/01/19 10:12:20;;;;;;;35.17;17.73;;;;;;;;;;5076222;28;20192;-48
2023/01/19 10:15:02;;;;;;;35.13;18.73;;;;;;;;;;5075057;28;20183;-49
2023/01/19 10:17:37;;;;;;;33.03;17.80;;;;;;;;;;5075727;28;20695;-48
2023/01/19 10:20:18;;;;;;;30.80;16.90;;;;;;;;;;5074863;28;20226;-52
2023/01/19 10:22:47;;;;;;;34.60;18.10;;;;;;;;;;5074753;28;20191;-50
2023/01/19 10:25:19;;;;;;;32.50;18.53;;;;;;;;;;5075518;28;20691;-48
2023/01/19 10:27:46;;;;;;;35.07;20.13;;;;;;;;;;5074413;28;20241;-50
2023/01/19 10:30:32;;;;;;;31.90;18.03;;;;;;;;;;5074586;28;20203;-49
2023/01/19 10:32:59;;;;;;;29.50;17.40;;;;;;;;;;5074564;28;20226;-49
2023/01/19 10:35:28;;;;;;;29.63;16.97;;;;;;;;;;5075486;28;20270;-48
2023/01/19 10:37:57;;;;;;;32.23;17.27;;;;;;;;;;5074701;28;20218;-49
2023/01/19 10:40:33;;;;;;;28.60;17.87;;;;;;;;;;5075264;28;20199;-48
2023/01/19 10:43:00;;;;;;;28.60;16.37;;;;;;;;;;5074236;28;20192;-49
2023/01/19 10:45:29;;;;;;;25.87;15.87;;;;;;;;;;5075141;28;20636;-49
2023/01/19 10:47:59;;;;;;;29.90;16.90;;;;;;;;;;5074219;28;20210;-51
2023/01/19 10:50:33;;;;;;;29.10;17.20;;;;;;;;;;5074794;28;20188;-52
2023/01/19 10:53:04;;;;;;;30.17;18.27;;;;;;;;;;5074227;28;20183;-48
2023/01/19 10:55:38;;;;;;;32.67;17.63;;;;;;;;;;5075090;28;20195;-48
2023/01/19 10:58:06;;;;;;;33.47;18.33;;;;;;;;;;5074302;28;20278;-49
2023/01/19 11:00:41;;;;;;;33.63;18.53;;;;;;;;;;5075098;28;20200;-48
2023/01/19 11:03:28;;;;;;;34.87;18.73;;;;;;;;;;5072703;28;20202;-50
2023/01/19 11:06:19;;;;;;;30.97;17.27;;;;;;;;;;5061576;28;20706;-48
2023/01/19 11:08:50;;;;;;;35.80;19.80;;;;;;;;;;5073218;28;20227;-49
2023/01/19 11:11:22;;;;;;;35.33;19.73;;;;;;;;;;5074170;28;20249;-51
2023/01/19 11:14:22;;;;;;;35.33;20.10;;;;;;;;;;5072667;28;20253;-48
2023/01/19 11:16:54;;;;;;;37.47;20.90;;;;;;;;;;5042897;28;20235;-53
2023/01/19 11:19:30;;;;;;;37.70;20.20;;;;;;;;;;5051226;28;20240;-49
2023/01/19 11:22:23;;;;;;;47.97;22.47;;;;;;;;;;5051913;28;20224;-50
2023/01/19 11:24:51;;;;;;;45.37;22.30;;;;;;;;;;5051686;28;20249;-48
2023/01/19 11:27:21;;;;;;;45.73;23.77;;;;;;;;;;5052826;28;20205;-49
2023/01/19 11:30:23;;;;;;;44.00;23.07;;;;;;;;;;5036423;28;20220;-51
2023/01/19 11:32:50;;;;;;;45.60;24.37;;;;;;;;;;5051009;28;20250;-49
2023/01/19 11:35:32;;;;;;;43.77;23.73;;;;;;;;;;5052957;28;20207;-52
2023/01/19 11:38:12;;;;;;;52.50;24.73;;;;;;;;;;5052833;28;20184;-50
2023/01/19 11:40:39;;;;;;;50.23;25.43;;;;;;;;;;5052074;28;20223;-50
2023/01/19 11:43:10;;;;;;;47.73;24.97;;;;;;;;;;5041275;28;20196;-50
2023/01/19 11:45:38;;;;;;;50.50;26.53;;;;;;;;;;5055775;28;20207;-49
2023/01/19 11:48:06;;;;;;;50.47;26.13;;;;;;;;;;5042744;28;20208;-49
2023/01/19 11:50:43;;;;;;;44.10;23.33;;;;;;;;;;5032690;28;20209;-50
2023/01/19 11:53:28;;;;;;;51.27;25.40;;;;;;;;;;5056598;28;20264;-52
2023/01/19 11:55:58;;;;;;;49.27;25.20;;;;;;;;;;5074153;28;20195;-51
2023/01/19 11:58:26;;;;;;;49.90;26.47;;;;;;;;;;5073095;28;20198;-49
2023/01/19 12:01:23;;;;;;;48.20;26.13;;;;;;;;;;5074420;28;20199;-50
2023/01/19 12:03:58;;;;;;;52.37;25.40;;;;;;;;;;5074268;28;20191;-52
2023/01/19 12:06:32;;;;;;;53.83;27.17;;;;;;;;;;5072838;28;20210;-50
2023/01/19 12:09:04;;;;;;;50.57;26.07;;;;;;;;;;5073244;28;20564;-51
2023/01/19 12:11:42;;;;;;;48.83;25.67;;;;;;;;;;5074549;28;20226;-49
2023/01/19 12:14:19;;;;;;;54.23;28.20;;;;;;;;;;5076149;28;20198;-50
2023/01/19 12:16:47;;;;;;;52.80;27.57;;;;;;;;;;5077633;28;20219;-49
2023/01/19 12:19:17;;;;;;;52.50;27.10;;;;;;;;;;5077979;28;20234;-50
2023/01/19 12:21:47;;;;;;;53.77;27.07;;;;;;;;;;5077480;28;20203;-49
2023/01/19 12:24:35;;;;;;;53.43;27.80;;;;;;;;;;5076815;28;20231;-49
2023/01/19 12:27:39;;;;;;;53.77;26.40;;;;;;;;;;5077623;28;20207;-49
2023/01/19 12:30:26;;;;;;;52.37;26.80;;;;;;;;;;5077069;28;20203;-50
2023/01/19 12:33:33;;;;;;;53.23;27.87;;;;;;;;;;5077815;28;20262;-49
2023/01/19 12:36:10;;;;;;;57.00;28.40;;;;;;;;;;5076342;28;20199;-47
2023/01/19 12:38:47;;;;;;;50.43;25.90;;;;;;;;;;5077945;28;20244;-47
2023/01/19 12:41:22;;;;;;;53.27;27.33;;;;;;;;;;5076293;28;20282;-49
2023/01/19 12:44:08;;;;;;;50.77;26.33;;;;;;;;;;5077941;28;20236;-48
2023/01/19 12:46:40;;;;;;;49.80;24.77;;;;;;;;;;5077680;28;20633;-48
2023/01/19 12:49:25;;;;;;;52.60;26.63;;;;;;;;;;5077369;28;20196;-48
2023/01/19 12:52:11;;;;;;;49.67;25.73;;;;;;;;;;5077886;28;20195;-49
2023/01/19 12:54:42;;;;;;;50.07;26.30;;;;;;;;;;5077572;28;20188;-48
2023/01/19 12:57:25;;;;;;;48.37;26.07;;;;;;;;;;5076743;28;20207;-48
2023/01/19 13:00:05;;;;;;;43.63;24.60;;;;;;;;;;5077338;28;20215;-48
2023/01/19 13:02:42;;;;;;;45.00;24.50;;;;;;;;;;5077550;28;20206;-51
2023/01/19 13:05:17;;;;;;;47.07;24.33;;;;;;;;;;5077478;28;20191;-49
2023/01/19 13:08:10;;;;;;;46.23;24.70;;;;;;;;;;5070793;28;20225;-49
2023/01/19 13:10:59;;;;;;;42.30;23.37;;;;;;;;;;5076136;28;20219;-49
2023/01/19 13:13:36;;;;;;;39.90;22.57;;;;;;;;;;5075703;28;20277;-49
2023/01/19 13:16:18;;;;;;;40.70;22.33;;;;;;;;;;5076436;28;20277;-49
2023/01/19 13:19:05;;;;;;;42.97;22.00;;;;;;;;;;5076039;28;20211;-48
2023/01/19 13:21:38;;;;;;;35.47;20.33;;;;;;;;;;5075868;28;20222;-49
2023/01/19 13:24:08;;;;;;;36.30;20.40;;;;;;;;;;5071912;28;20632;-50
2023/01/19 13:26:42;;;;;;;38.57;22.33;;;;;;;;;;5075231;28;20245;-48
2023/01/19 13:29:12;;;;;;;38.13;22.53;;;;;;;;;;5075364;28;20304;-49
2023/01/19 13:31:41;;;;;;;41.17;21.87;;;;;;;;;;5076188;28;20228;-48
2023/01/19 13:34:15;;;;;;;38.33;22.03;;;;;;;;;;5074991;28;20235;-50
2023/01/19 13:36:49;;;;;;;35.30;20.53;;;;;;;;;;5075509;28;20238;-49
2023/01/19 13:39:25;;;;;;;37.60;20.33;;;;;;;;;;5075273;28;20243;-50
2023/01/19 13:41:54;;;;;;;38.33;20.90;;;;;;;;;;5075461;28;20233;-50
2023/01/19 13:44:27;;;;;;;42.17;21.47;;;;;;;;;;5073723;28;20223;-47
2023/01/19 13:46:58;;;;;;;49.53;23.57;;;;;;;;;;5076334;28;20260;-50
2023/01/19 13:49:35;;;;;;;42.07;22.30;;;;;;;;;;5076048;28;20219;-49
2023/01/19 13:52:12;;;;;;;42.50;22.13;;;;;;;;;;5076654;28;20278;-48
2023/01/19 13:54:51;;;;;;;33.57;19.93;;;;;;;;;;5076216;28;20195;-48
2023/01/19 13:57:26;;;;;;;33.27;18.80;;;;;;;;;;5075962;28;20188;-50
2023/01/19 14:00:10;;;;;;;35.07;19.33;;;;;;;;;;5076484;28;20215;-51
2023/01/19 14:02:49;;;;;;;35.80;19.27;;;;;;;;;;5076557;28;20187;-51
2023/01/19 14:05:37;;;;;;;37.57;21.87;;;;;;;;;;5055941;28;20191;-49
2023/01/19 14:08:09;;;;;;;39.43;20.33;;;;;;;;;;5057990;28;20188;-48
2023/01/19 14:10:52;;;;;;;32.77;18.93;;;;;;;;;;5075825;28;20199;-49
2023/01/19 14:13:31;;;;;;;43.13;23.07;;;;;;;;;;5076026;28;20252;-48
2023/01/19 14:16:04;;;;;;;33.10;18.93;;;;;;;;;;5075460;28;20203;-48
2023/01/19 14:18:33;;;;;;;38.03;21.30;;;;;;;;;;5074682;28;20234;-49
2023/01/19 14:21:00;;;;;;;45.73;22.50;;;;;;;;;;5069242;28;20223;-45
2023/01/19 14:23:47;;;;;;;38.80;21.67;;;;;;;;;;5073929;28;20235;-46
2023/01/19 14:26:45;;;;;;;42.20;22.93;;;;;;;;;;5066280;28;20230;-52
2023/01/19 14:29:23;;;;;;;37.23;19.10;;;;;;;;;;5055165;28;20294;-46
2023/01/19 14:31:59;;;;;;;33.13;18.60;;;;;;;;;;5062166;28;20280;-46
2023/01/19 14:34:32;;;;;;;31.23;17.60;;;;;;;;;;5061072;28;20556;-47
2023/01/19 14:37:02;;;;;;;39.93;19.30;;;;;;;;;;5074313;28;20534;-46
2023/01/19 14:39:32;;;;;;;57.30;23.53;;;;;;;;;;5074114;28;20318;-46
2023/01/19 14:42:02;;;;;;;35.97;19.47;;;;;;;;;;5073411;28;20219;-47
2023/01/19 14:44:35;;;;;;;31.70;18.33;;;;;;;;;;5067829;28;20227;-45
2023/01/19 14:47:04;;;;;;;31.43;19.63;;;;;;;;;;5061089;28;20238;-48
2023/01/19 14:49:37;;;;;;;28.03;18.20;;;;;;;;;;5074610;28;20289;-47
2023/01/19 14:52:19;;;;;;;31.37;18.53;;;;;;;;;;5074129;28;20223;-48